createdAt,value
2018-12-25T00:00:51.365Z,-1.23
2018-12-25T00:01:55.619Z,-1.23
2018-12-25T00:02:59.627Z,-1.23
2018-12-25T00:04:03.709Z,-1.22
2018-12-25T00:05:07.863Z,-1.18
2018-12-25T00:06:12.032Z,-1.19
2018-12-25T00:07:16.028Z,-1.17
2018-12-25T00:08:20.074Z,-1.17
2018-12-25T00:09:24.128Z,-1.16
2018-12-25T00:10:28.191Z,-1.15
2018-12-25T00:11:32.374Z,-1.16
2018-12-25T00:12:36.407Z,-1.16
2018-12-25T00:13:40.505Z,-1.15
2018-12-25T00:14:44.744Z,-1.12
2018-12-25T00:15:48.789Z,-1.14
2018-12-25T00:16:52.877Z,-1.11
2018-12-25T00:17:56.930Z,-1.11
2018-12-25T00:19:06.100Z,-1.14
2018-12-25T00:20:05.289Z,-1.12
2018-12-25T00:21:09.385Z,-1.12
2018-12-25T00:22:13.374Z,-1.12
2018-12-25T00:23:17.405Z,-1.10
2018-12-25T00:24:21.389Z,-1.09
2018-12-25T00:25:25.541Z,-1.08
2018-12-25T00:26:29.618Z,-1.05
2018-12-25T00:27:33.823Z,-1.07
2018-12-25T00:28:37.886Z,-1.07
2018-12-25T00:29:42.093Z,-1.05
2018-12-25T00:30:46.288Z,-1.05
2018-12-25T00:31:50.343Z,-1.05
2018-12-25T00:32:54.456Z,-1.06
2018-12-25T00:33:58.525Z,-1.05
2018-12-25T00:35:02.511Z,-1.06
2018-12-25T00:36:06.616Z,-1.03
2018-12-25T00:37:10.608Z,-1.02
2018-12-25T00:38:14.745Z,-1.00
2018-12-25T00:39:18.785Z,-0.99
2018-12-25T00:40:22.861Z,-0.97
2018-12-25T00:41:26.899Z,-0.96
2018-12-25T00:42:30.968Z,-0.95
2018-12-25T00:43:35.025Z,-0.92
2018-12-25T00:44:39.001Z,-0.90
2018-12-25T00:45:43.102Z,-0.89
2018-12-25T00:46:47.167Z,-0.87
2018-12-25T00:47:51.138Z,-0.86
2018-12-25T00:48:55.226Z,-0.85
2018-12-25T00:49:59.298Z,-0.82
2018-12-25T00:51:03.426Z,-0.83
2018-12-25T00:52:07.447Z,-0.82
2018-12-25T00:53:11.435Z,-0.82
2018-12-25T00:54:15.549Z,-0.81
2018-12-25T00:55:19.963Z,-0.80
2018-12-25T00:56:24.089Z,-0.79
2018-12-25T00:57:28.122Z,-0.78
2018-12-25T00:58:32.124Z,-0.77
2018-12-25T00:59:36.157Z,-0.77
2018-12-25T01:00:40.135Z,-0.76
2018-12-25T01:01:44.227Z,-0.76
2018-12-25T01:02:48.263Z,-0.76
2018-12-25T01:03:52.372Z,-0.74
2018-12-25T01:04:56.387Z,-0.73
2018-12-25T01:06:00.470Z,-0.72
2018-12-25T01:07:04.535Z,-0.71
2018-12-25T01:08:08.577Z,-0.70
2018-12-25T01:09:12.591Z,-0.70
2018-12-25T01:10:16.794Z,-0.69
2018-12-25T01:11:20.834Z,-0.69
2018-12-25T01:12:25.019Z,-0.68
2018-12-25T01:13:29.091Z,-0.66
2018-12-25T01:14:33.111Z,-0.66
2018-12-25T01:15:37.194Z,-0.67
2018-12-25T01:16:41.288Z,-0.66
2018-12-25T01:17:45.414Z,-0.65
2018-12-25T01:18:49.438Z,-0.66
2018-12-25T01:19:53.466Z,-0.64
2018-12-25T01:20:57.503Z,-0.64
2018-12-25T01:22:01.500Z,-0.61
2018-12-25T01:23:05.607Z,-0.59
2018-12-25T01:24:09.589Z,-0.60
2018-12-25T01:25:13.680Z,-0.57
2018-12-25T01:26:17.798Z,-0.56
2018-12-25T01:27:21.921Z,-0.56
2018-12-25T01:28:26.029Z,-0.53
2018-12-25T01:29:30.099Z,-0.52
2018-12-25T01:30:34.165Z,-0.51
2018-12-25T01:31:38.276Z,-0.49
2018-12-25T01:32:42.318Z,-0.50
2018-12-25T01:33:46.432Z,-0.49
2018-12-25T01:34:50.430Z,-0.48
2018-12-25T01:35:54.601Z,-0.49
2018-12-25T01:36:58.599Z,-0.47
2018-12-25T01:38:03.007Z,-0.46
2018-12-25T01:39:08.135Z,-0.47
2018-12-25T01:40:12.217Z,-0.44
2018-12-25T01:41:16.290Z,-0.45
2018-12-25T01:42:20.302Z,-0.42
2018-12-25T01:43:24.431Z,-0.42
2018-12-25T01:44:28.530Z,-0.41
2018-12-25T01:45:32.606Z,-0.38
2018-12-25T01:46:36.644Z,-0.38
2018-12-25T01:47:40.809Z,-0.36
2018-12-25T01:48:44.901Z,-0.35
2018-12-25T01:49:48.931Z,-0.32
2018-12-25T01:50:53.013Z,-0.26
2018-12-25T01:51:57.160Z,-0.29
2018-12-25T01:53:01.316Z,-0.32
2018-12-25T01:54:05.449Z,-0.31
2018-12-25T01:55:09.495Z,-0.29
2018-12-25T01:56:13.518Z,-0.29
2018-12-25T01:57:17.589Z,-0.26
2018-12-25T01:58:21.649Z,-0.26
2018-12-25T01:59:25.782Z,-0.26
2018-12-25T02:00:30.034Z,-0.23
2018-12-25T02:01:34.163Z,-0.23
2018-12-25T02:02:38.180Z,-0.22
2018-12-25T02:03:42.171Z,-0.19
2018-12-25T02:04:46.263Z,-0.20
2018-12-25T02:05:50.266Z,-0.17
2018-12-25T02:06:54.272Z,-0.16
2018-12-25T02:07:58.359Z,-0.15
2018-12-25T02:09:02.392Z,-0.15
2018-12-25T02:10:06.562Z,-0.15
2018-12-25T02:11:10.747Z,-0.12
2018-12-25T02:12:14.873Z,-0.11
2018-12-25T02:13:18.912Z,-0.11
2018-12-25T02:14:22.929Z,-0.08
2018-12-25T02:15:27.143Z,-0.09
2018-12-25T02:16:31.196Z,-0.08
2018-12-25T02:17:35.223Z,-0.06
2018-12-25T02:18:39.267Z,-0.06
2018-12-25T02:19:43.304Z,-0.05
2018-12-25T02:20:47.370Z,-0.03
2018-12-25T02:21:51.476Z,-0.01
2018-12-25T02:22:55.543Z,-0.01
2018-12-25T02:23:59.704Z,0.02
2018-12-25T02:25:03.704Z,0.05
2018-12-25T02:26:07.849Z,0.04
2018-12-25T02:27:11.908Z,0.03
2018-12-25T02:28:16.046Z,0.05
2018-12-25T02:29:20.217Z,0.05
2018-12-25T02:30:24.326Z,0.07
2018-12-25T02:31:28.583Z,0.08
2018-12-25T02:32:32.609Z,0.09
2018-12-25T02:33:36.701Z,0.10
2018-12-25T02:34:40.788Z,0.12
2018-12-25T02:35:44.853Z,0.14
2018-12-25T02:36:48.856Z,0.16
2018-12-25T02:37:53.046Z,0.17
2018-12-25T02:38:57.170Z,0.17
2018-12-25T02:40:01.335Z,0.17
2018-12-25T02:41:05.392Z,0.19
2018-12-25T02:42:09.482Z,0.19
2018-12-25T02:43:13.738Z,0.21
2018-12-25T02:44:17.773Z,0.22
2018-12-25T02:45:21.807Z,0.22
2018-12-25T02:46:25.930Z,0.22
2018-12-25T02:47:29.984Z,0.22
2018-12-25T02:48:34.108Z,0.23
2018-12-25T02:49:38.188Z,0.23
2018-12-25T02:50:42.323Z,0.23
2018-12-25T02:51:46.616Z,0.24
2018-12-25T02:52:50.869Z,0.24
2018-12-25T02:53:55.033Z,0.26
2018-12-25T02:54:59.169Z,0.25
2018-12-25T02:56:03.154Z,0.26
2018-12-25T02:57:07.287Z,0.27
2018-12-25T02:58:12.184Z,0.26
2018-12-25T02:59:16.261Z,0.26
2018-12-25T03:00:20.328Z,0.27
2018-12-25T03:01:24.368Z,0.27
2018-12-25T03:02:28.367Z,0.27
2018-12-25T03:03:32.498Z,0.28
2018-12-25T03:04:36.577Z,0.28
2018-12-25T03:05:40.662Z,0.30
2018-12-25T03:06:44.635Z,0.31
2018-12-25T03:07:48.633Z,0.32
2018-12-25T03:08:52.721Z,0.32
2018-12-25T03:09:56.740Z,0.33
2018-12-25T03:11:00.750Z,0.34
2018-12-25T03:12:04.847Z,0.34
2018-12-25T03:13:08.931Z,0.35
2018-12-25T03:14:13.016Z,0.36
2018-12-25T03:15:17.165Z,0.33
2018-12-25T03:16:21.217Z,0.36
2018-12-25T03:17:25.331Z,0.37
2018-12-25T03:18:29.412Z,0.39
2018-12-25T03:19:33.440Z,0.37
2018-12-25T03:20:37.445Z,0.35
2018-12-25T03:21:41.625Z,0.35
2018-12-25T03:22:45.670Z,0.37
2018-12-25T03:23:49.707Z,0.36
2018-12-25T03:24:53.764Z,0.34
2018-12-25T03:25:57.883Z,0.32
2018-12-25T03:27:01.917Z,0.32
2018-12-25T03:28:06.140Z,0.33
2018-12-25T03:29:10.202Z,0.31
2018-12-25T03:30:14.378Z,0.33
2018-12-25T03:31:18.556Z,0.32
2018-12-25T03:32:22.667Z,0.34
2018-12-25T03:33:26.986Z,0.33
2018-12-25T03:34:30.955Z,0.33
2018-12-25T03:35:35.098Z,0.32
2018-12-25T03:36:39.316Z,0.32
2018-12-25T03:37:43.398Z,0.32
2018-12-25T03:38:47.410Z,0.28
2018-12-25T03:39:51.432Z,0.30
2018-12-25T03:40:55.511Z,0.29
2018-12-25T03:41:59.584Z,0.30
2018-12-25T03:43:03.665Z,0.30
2018-12-25T03:44:07.663Z,0.29
2018-12-25T03:45:11.798Z,0.29
2018-12-25T03:46:15.829Z,0.28
2018-12-25T03:47:19.949Z,0.28
2018-12-25T03:48:23.984Z,0.29
2018-12-25T03:49:28.071Z,0.30
2018-12-25T03:50:32.116Z,0.27
2018-12-25T03:51:36.132Z,0.31
2018-12-25T03:52:40.165Z,0.28
2018-12-25T03:53:44.247Z,0.32
2018-12-25T03:54:48.291Z,0.33
2018-12-25T03:55:52.338Z,0.32
2018-12-25T03:56:56.393Z,0.33
2018-12-25T03:58:00.417Z,0.33
2018-12-25T03:59:04.446Z,0.33
2018-12-25T04:00:08.655Z,0.33
2018-12-25T04:01:12.758Z,0.33
2018-12-25T04:02:16.928Z,0.34
2018-12-25T04:03:20.993Z,0.35
2018-12-25T04:04:25.121Z,0.32
2018-12-25T04:05:29.173Z,0.34
2018-12-25T04:06:33.204Z,0.32
2018-12-25T04:07:37.419Z,0.33
2018-12-25T04:08:41.534Z,0.31
2018-12-25T04:09:45.580Z,0.33
2018-12-25T04:10:49.707Z,0.32
2018-12-25T04:11:53.729Z,0.33
2018-12-25T04:12:57.902Z,0.33
2018-12-25T04:14:02.068Z,0.33
2018-12-25T04:15:06.513Z,0.32
2018-12-25T04:16:10.487Z,0.28
2018-12-25T04:17:14.646Z,0.28
2018-12-25T04:18:18.796Z,0.30
2018-12-25T04:19:22.838Z,0.28
2018-12-25T04:20:26.807Z,0.28
2018-12-25T04:21:30.920Z,0.28
2018-12-25T04:22:34.986Z,0.26
2018-12-25T04:23:39.204Z,0.21
2018-12-25T04:24:43.306Z,0.22
2018-12-25T04:25:47.334Z,0.21
2018-12-25T04:26:51.348Z,0.21
2018-12-25T04:27:55.566Z,0.20
2018-12-25T04:28:59.717Z,0.20
2018-12-25T04:30:03.862Z,0.20
2018-12-25T04:31:07.923Z,0.19
2018-12-25T04:32:11.927Z,0.19
2018-12-25T04:33:15.961Z,0.17
2018-12-25T04:34:20.030Z,0.16
2018-12-25T04:35:24.057Z,0.16
2018-12-25T04:36:28.116Z,0.15
2018-12-25T04:37:32.215Z,0.16
2018-12-25T04:38:36.265Z,0.17
2018-12-25T04:39:40.404Z,0.17
2018-12-25T04:40:44.450Z,0.20
2018-12-25T04:41:48.419Z,0.20
2018-12-25T04:42:52.449Z,0.20
2018-12-25T04:43:56.528Z,0.22
2018-12-25T04:45:00.762Z,0.22
2018-12-25T04:46:04.867Z,0.21
2018-12-25T04:47:08.959Z,0.23
2018-12-25T04:48:13.058Z,0.25
2018-12-25T04:49:17.142Z,0.25
2018-12-25T04:50:29.262Z,0.27
2018-12-25T04:51:25.354Z,0.30
2018-12-25T04:52:29.392Z,0.30
2018-12-25T04:53:33.482Z,0.31
2018-12-25T04:54:37.564Z,0.33
2018-12-25T04:55:41.630Z,0.35
2018-12-25T04:56:45.736Z,0.36
2018-12-25T04:57:49.760Z,0.37
2018-12-25T04:58:53.794Z,0.36
2018-12-25T04:59:57.932Z,0.39
2018-12-25T05:01:02.034Z,0.42
2018-12-25T05:02:06.024Z,0.43
2018-12-25T05:03:10.067Z,0.44
2018-12-25T05:04:14.070Z,0.47
2018-12-25T05:05:18.204Z,0.48
2018-12-25T05:06:22.325Z,0.54
2018-12-25T05:07:26.412Z,0.52
2018-12-25T05:08:30.434Z,0.55
2018-12-25T05:09:34.417Z,0.57
2018-12-25T05:10:38.447Z,0.61
2018-12-25T05:11:42.513Z,0.60
2018-12-25T05:12:46.618Z,0.60
2018-12-25T05:13:50.703Z,0.60
2018-12-25T05:14:54.782Z,0.58
2018-12-25T05:15:58.791Z,0.60
2018-12-25T05:17:02.951Z,0.59
2018-12-25T05:18:07.124Z,0.57
2018-12-25T05:19:11.228Z,0.57
2018-12-25T05:20:15.323Z,0.57
2018-12-25T05:21:19.341Z,0.54
2018-12-25T05:22:23.500Z,0.55
2018-12-25T05:23:27.564Z,0.54
2018-12-25T05:24:31.563Z,0.53
2018-12-25T05:25:35.520Z,0.53
2018-12-25T05:26:39.505Z,0.51
2018-12-25T05:27:43.554Z,0.51
2018-12-25T05:28:47.614Z,0.49
2018-12-25T05:29:51.729Z,0.50
2018-12-25T05:30:55.713Z,0.53
2018-12-25T05:31:59.803Z,0.53
2018-12-25T05:33:03.872Z,0.53
2018-12-25T05:34:07.941Z,0.51
2018-12-25T05:35:12.048Z,0.49
2018-12-25T05:36:16.263Z,0.50
2018-12-25T05:37:20.237Z,0.50
2018-12-25T05:38:24.361Z,0.47
2018-12-25T05:39:28.342Z,0.48
2018-12-25T05:40:32.354Z,0.46
2018-12-25T05:41:36.345Z,0.44
2018-12-25T05:42:40.360Z,0.48
2018-12-25T05:43:44.442Z,0.48
2018-12-25T05:44:48.500Z,0.44
2018-12-25T05:45:52.530Z,0.43
2018-12-25T05:46:56.630Z,0.44
2018-12-25T05:48:00.702Z,0.45
2018-12-25T05:49:04.777Z,0.49
2018-12-25T05:50:08.792Z,0.45
2018-12-25T05:51:12.903Z,0.46
2018-12-25T05:52:16.965Z,0.42
2018-12-25T05:53:21.056Z,0.41
2018-12-25T05:54:25.058Z,0.42
2018-12-25T05:55:29.117Z,0.37
2018-12-25T05:56:33.122Z,0.35
2018-12-25T05:57:37.260Z,0.33
2018-12-25T05:58:41.370Z,0.30
2018-12-25T05:59:45.442Z,0.27
2018-12-25T06:00:49.675Z,0.26
2018-12-25T06:01:53.695Z,0.30
2018-12-25T06:02:57.735Z,0.27
2018-12-25T06:04:01.815Z,0.25
2018-12-25T06:05:06.126Z,0.25
2018-12-25T06:06:10.237Z,0.24
2018-12-25T06:07:14.317Z,0.23
2018-12-25T06:08:18.485Z,0.22
2018-12-25T06:09:22.539Z,0.23
2018-12-25T06:10:26.583Z,0.23
2018-12-25T06:11:30.682Z,0.23
2018-12-25T06:12:34.690Z,0.25
2018-12-25T06:13:38.756Z,0.22
2018-12-25T06:14:42.856Z,0.20
2018-12-25T06:15:47.790Z,0.18
2018-12-25T06:16:51.885Z,0.19
2018-12-25T06:17:56.184Z,0.16
2018-12-25T06:19:00.178Z,0.16
2018-12-25T06:20:04.836Z,0.16
2018-12-25T06:21:08.936Z,0.14
2018-12-25T06:22:12.965Z,0.13
2018-12-25T06:23:17.077Z,0.12
2018-12-25T06:24:21.125Z,0.10
2018-12-25T06:25:25.299Z,0.10
2018-12-25T06:26:29.443Z,0.13
2018-12-25T06:27:33.749Z,0.16
2018-12-25T06:28:37.791Z,0.15
2018-12-25T06:29:41.937Z,0.13
2018-12-25T06:30:46.077Z,0.14
2018-12-25T06:31:50.095Z,0.14
2018-12-25T06:32:54.128Z,0.14
2018-12-25T06:33:58.237Z,0.13
2018-12-25T06:35:02.337Z,0.14
2018-12-25T06:36:06.610Z,0.16
2018-12-25T06:37:10.734Z,0.17
2018-12-25T06:38:14.817Z,0.17
2018-12-25T06:39:19.026Z,0.19
2018-12-25T06:40:23.100Z,0.19
2018-12-25T06:41:27.289Z,0.22
2018-12-25T06:42:35.481Z,0.21
2018-12-25T06:43:39.589Z,0.23
2018-12-25T06:44:44.840Z,0.22
2018-12-25T06:45:48.905Z,0.24
2018-12-25T06:46:53.077Z,0.24
2018-12-25T06:47:57.166Z,0.26
2018-12-25T06:49:01.353Z,0.28
2018-12-25T06:50:05.586Z,0.30
2018-12-25T06:51:09.867Z,0.28
2018-12-25T06:52:13.954Z,0.31
2018-12-25T06:53:18.062Z,0.30
2018-12-25T06:54:22.212Z,0.31
2018-12-25T06:55:26.322Z,0.32
2018-12-25T06:56:30.595Z,0.32
2018-12-25T06:57:34.729Z,0.34
2018-12-25T06:58:38.898Z,0.34
2018-12-25T06:59:42.942Z,0.35
2018-12-25T07:00:47.131Z,0.36
2018-12-25T07:01:51.330Z,0.37
2018-12-25T07:02:55.422Z,0.39
2018-12-25T07:03:59.503Z,0.38
2018-12-25T07:05:03.707Z,0.40
2018-12-25T07:06:07.744Z,0.42
2018-12-25T07:07:11.799Z,0.43
2018-12-25T07:08:15.864Z,0.42
2018-12-25T07:09:19.957Z,0.41
2018-12-25T07:10:24.037Z,0.43
2018-12-25T07:11:28.203Z,0.43
2018-12-25T07:12:32.248Z,0.42
2018-12-25T07:13:36.283Z,0.42
2018-12-25T07:14:40.450Z,0.41
2018-12-25T07:15:44.434Z,0.39
2018-12-25T07:16:48.490Z,0.41
2018-12-25T07:17:52.614Z,0.42
2018-12-25T07:18:56.771Z,0.42
2018-12-25T07:20:00.974Z,0.42
2018-12-25T07:21:11.949Z,0.41
2018-12-25T07:22:09.204Z,0.42
2018-12-25T07:23:13.402Z,0.43
2018-12-25T07:24:17.614Z,0.43
2018-12-25T07:25:21.788Z,0.43
2018-12-25T07:26:25.825Z,0.42
2018-12-25T07:27:29.857Z,0.42
2018-12-25T07:28:34.498Z,0.44
2018-12-25T07:29:38.637Z,0.44
2018-12-25T07:30:42.736Z,0.43
2018-12-25T07:31:46.814Z,0.43
2018-12-25T07:32:50.824Z,0.45
2018-12-25T07:33:54.983Z,0.45
2018-12-25T07:34:59.008Z,0.43
2018-12-25T07:36:03.247Z,0.43
2018-12-25T07:37:07.253Z,0.42
2018-12-25T07:38:11.297Z,0.40
2018-12-25T07:39:15.395Z,0.39
2018-12-25T07:40:19.544Z,0.39
2018-12-25T07:41:23.541Z,0.39
2018-12-25T07:42:27.582Z,0.39
2018-12-25T07:43:31.649Z,0.40
2018-12-25T07:44:35.792Z,0.41
2018-12-25T07:45:39.850Z,0.38
2018-12-25T07:46:43.906Z,0.38
2018-12-25T07:47:48.031Z,0.37
2018-12-25T07:48:52.138Z,0.37
2018-12-25T07:49:56.283Z,0.34
2018-12-25T07:51:00.478Z,0.39
2018-12-25T07:52:04.571Z,0.36
2018-12-25T07:53:08.736Z,0.36
2018-12-25T07:54:12.831Z,0.36
2018-12-25T07:55:16.990Z,0.38
2018-12-25T07:56:21.039Z,0.37
2018-12-25T07:57:25.041Z,0.39
2018-12-25T07:58:29.195Z,0.40
2018-12-25T07:59:33.224Z,0.39
2018-12-25T08:00:37.309Z,0.38
2018-12-25T08:01:41.360Z,0.38
2018-12-25T08:02:45.385Z,0.39
2018-12-25T08:03:49.406Z,0.41
2018-12-25T08:04:53.737Z,0.36
2018-12-25T08:05:57.784Z,0.36
2018-12-25T08:07:01.889Z,0.37
2018-12-25T08:08:05.941Z,0.39
2018-12-25T08:09:10.071Z,0.42
2018-12-25T08:10:14.131Z,0.44
2018-12-25T08:11:18.386Z,0.42
2018-12-25T08:12:22.388Z,0.47
2018-12-25T08:13:26.929Z,0.46
2018-12-25T08:14:31.051Z,0.47
2018-12-25T08:15:35.266Z,0.46
2018-12-25T08:16:39.348Z,0.48
2018-12-25T08:17:43.403Z,0.50
2018-12-25T08:18:47.513Z,0.49
2018-12-25T08:19:51.617Z,0.48
2018-12-25T08:20:55.744Z,0.54
2018-12-25T08:21:59.793Z,0.56
2018-12-25T08:23:03.961Z,0.57
2018-12-25T08:24:08.022Z,0.55
2018-12-25T08:25:12.180Z,0.54
2018-12-25T08:26:16.469Z,0.58
2018-12-25T08:27:20.717Z,0.59
2018-12-25T08:28:25.040Z,0.58
2018-12-25T08:29:29.234Z,0.59
2018-12-25T08:30:33.351Z,0.61
2018-12-25T08:31:37.471Z,0.62
2018-12-25T08:32:41.674Z,0.60
2018-12-25T08:33:45.854Z,0.60
2018-12-25T08:34:50.020Z,0.58
2018-12-25T08:35:54.177Z,0.55
2018-12-25T08:36:58.308Z,0.58
2018-12-25T08:38:02.463Z,0.56
2018-12-25T08:39:08.113Z,0.55
2018-12-25T08:40:12.257Z,0.54
2018-12-25T08:41:16.371Z,0.53
2018-12-25T08:42:20.438Z,0.55
2018-12-25T08:43:24.659Z,0.53
2018-12-25T08:44:28.823Z,0.55
2018-12-25T08:45:32.927Z,0.53
2018-12-25T08:46:37.134Z,0.58
2018-12-25T08:47:41.269Z,0.54
2018-12-25T08:48:45.277Z,0.58
2018-12-25T08:49:50.321Z,0.59
2018-12-25T08:50:53.542Z,0.59
2018-12-25T08:51:57.728Z,0.58
2018-12-25T08:53:01.816Z,0.58
2018-12-25T08:54:05.961Z,0.62
2018-12-25T08:55:10.289Z,0.61
2018-12-25T08:56:14.538Z,0.61
2018-12-25T08:57:18.843Z,0.62
2018-12-25T08:58:23.300Z,0.65
2018-12-25T08:59:27.650Z,0.67
2018-12-25T09:00:32.527Z,0.66
2018-12-25T09:01:37.055Z,0.70
2018-12-25T09:02:41.445Z,0.69
2018-12-25T09:03:45.908Z,0.69
2018-12-25T09:04:50.200Z,0.69
2018-12-25T09:05:54.345Z,0.70
2018-12-25T09:06:58.810Z,0.73
2018-12-25T09:08:03.169Z,0.73
2018-12-25T09:09:08.864Z,0.76
2018-12-25T09:10:13.303Z,0.77
2018-12-25T09:11:17.559Z,0.80
2018-12-25T09:12:21.763Z,0.82
2018-12-25T09:13:25.942Z,0.79
2018-12-25T09:14:30.236Z,0.86
2018-12-25T09:15:34.504Z,0.84
2018-12-25T09:16:38.699Z,0.86
2018-12-25T09:17:43.057Z,0.85
2018-12-25T09:18:47.385Z,0.89
2018-12-25T09:19:51.524Z,0.91
2018-12-25T09:20:55.638Z,0.94
2018-12-25T09:21:59.773Z,0.94
2018-12-25T09:23:03.877Z,0.92
2018-12-25T09:24:08.335Z,0.95
2018-12-25T09:25:12.638Z,0.97
2018-12-25T09:26:16.812Z,1.01
2018-12-25T09:27:21.367Z,1.00
2018-12-25T09:28:25.455Z,1.00
2018-12-25T09:29:29.697Z,1.10
2018-12-25T09:30:33.981Z,1.09
2018-12-25T09:31:38.120Z,1.10
2018-12-25T09:32:42.587Z,1.08
2018-12-25T09:33:46.733Z,1.08
2018-12-25T09:34:51.489Z,1.13
2018-12-25T09:35:55.679Z,1.17
2018-12-25T09:36:59.851Z,1.19
2018-12-25T09:38:04.239Z,1.21
2018-12-25T09:39:08.856Z,1.28
2018-12-25T09:40:15.108Z,1.37
2018-12-25T09:41:19.442Z,1.48
2018-12-25T09:42:23.660Z,1.52
2018-12-25T09:43:27.848Z,1.54
2018-12-25T09:44:32.191Z,1.60
2018-12-25T09:45:36.264Z,1.64
2018-12-25T09:46:40.559Z,1.64
2018-12-25T09:47:44.666Z,1.69
2018-12-25T09:48:48.957Z,1.68
2018-12-25T09:49:53.238Z,1.65
2018-12-25T09:50:57.688Z,1.66
2018-12-25T09:52:01.978Z,1.69
2018-12-25T09:53:06.040Z,1.69
2018-12-25T09:54:10.390Z,1.68
2018-12-25T09:55:14.657Z,1.68
2018-12-25T09:56:18.944Z,1.68
2018-12-25T09:57:23.237Z,1.68
2018-12-25T09:58:27.729Z,1.73
2018-12-25T09:59:32.180Z,1.73
2018-12-25T10:00:38.265Z,1.71
2018-12-25T10:01:41.607Z,1.71
2018-12-25T10:02:46.376Z,1.69
2018-12-25T10:03:51.479Z,1.73
2018-12-25T10:04:57.484Z,1.71
2018-12-25T10:06:02.161Z,1.64
2018-12-25T10:07:07.214Z,1.72
2018-12-25T10:08:12.581Z,1.69
2018-12-25T10:09:19.641Z,1.71
2018-12-25T10:10:24.364Z,1.68
2018-12-25T10:11:29.744Z,1.68
2018-12-25T10:12:34.796Z,1.67
2018-12-25T10:13:39.411Z,1.65
2018-12-25T10:14:46.872Z,1.65
2018-12-25T10:15:51.942Z,1.66
2018-12-25T10:16:58.312Z,1.65
2018-12-25T10:18:02.627Z,1.66
2018-12-25T10:19:06.901Z,1.68
2018-12-25T10:20:11.342Z,1.67
2018-12-25T10:21:15.832Z,1.68
2018-12-25T10:22:20.735Z,1.70
2018-12-25T10:23:25.471Z,1.70
2018-12-25T10:24:29.978Z,1.72
2018-12-25T10:25:34.437Z,1.71
2018-12-25T10:26:38.932Z,1.72
2018-12-25T10:27:43.421Z,1.71
2018-12-25T10:28:47.943Z,1.74
2018-12-25T10:29:52.389Z,1.77
2018-12-25T10:30:56.781Z,1.83
2018-12-25T10:32:01.259Z,1.85
2018-12-25T10:33:05.636Z,1.90
2018-12-25T10:34:10.916Z,1.85
2018-12-25T10:35:15.765Z,1.92
2018-12-25T10:36:20.501Z,1.94
2018-12-25T10:37:25.824Z,2.14
2018-12-25T10:38:30.601Z,2.27
2018-12-25T10:39:35.393Z,2.30
2018-12-25T10:40:40.169Z,2.40
2018-12-25T10:41:44.820Z,2.43
2018-12-25T10:42:49.563Z,2.45
2018-12-25T10:43:54.429Z,2.47
2018-12-25T10:44:59.155Z,2.51
2018-12-25T10:46:03.892Z,2.51
2018-12-25T10:47:09.464Z,2.47
2018-12-25T10:48:14.031Z,2.47
2018-12-25T10:49:20.951Z,2.45
2018-12-25T10:50:25.774Z,2.45
2018-12-25T10:51:30.074Z,2.41
2018-12-25T10:52:35.494Z,2.43
2018-12-25T10:53:39.759Z,2.42
2018-12-25T10:54:44.604Z,2.39
2018-12-25T10:55:53.781Z,2.40
2018-12-25T10:56:58.244Z,2.37
2018-12-25T10:58:04.863Z,2.37
2018-12-25T10:59:10.498Z,2.36
2018-12-25T11:00:16.278Z,2.27
2018-12-25T11:01:25.982Z,2.34
2018-12-25T11:02:30.406Z,2.36
2018-12-25T11:03:35.563Z,2.36
2018-12-25T11:04:40.493Z,2.33
2018-12-25T11:05:45.834Z,2.33
2018-12-25T11:06:49.916Z,2.32
2018-12-25T11:07:54.352Z,2.33
2018-12-25T11:08:58.997Z,2.33
2018-12-25T11:10:05.417Z,2.36
2018-12-25T11:11:10.666Z,2.34
2018-12-25T11:12:15.715Z,2.31
2018-12-25T11:13:20.096Z,2.35
2018-12-25T11:14:25.643Z,2.33
2018-12-25T11:15:29.842Z,2.36
2018-12-25T11:16:35.606Z,2.41
2018-12-25T11:17:39.823Z,2.40
2018-12-25T11:18:49.096Z,2.35
2018-12-25T11:19:48.806Z,2.37
2018-12-25T11:20:54.903Z,2.33
2018-12-25T11:22:01.225Z,2.35
2018-12-25T11:23:06.093Z,2.35
2018-12-25T11:24:10.739Z,2.38
2018-12-25T11:25:15.467Z,2.35
2018-12-25T11:26:21.668Z,2.34
2018-12-25T11:27:26.153Z,2.37
2018-12-25T11:28:31.879Z,2.36
2018-12-25T11:29:37.748Z,2.39
2018-12-25T11:30:43.426Z,2.39
2018-12-25T11:31:49.214Z,2.38
2018-12-25T11:32:54.228Z,2.37
2018-12-25T11:33:58.924Z,2.36
2018-12-25T11:35:16.113Z,2.40
2018-12-25T11:36:22.990Z,2.38
2018-12-25T11:37:28.324Z,2.43
2018-12-25T11:38:35.667Z,2.42
2018-12-25T11:39:42.473Z,2.43
2018-12-25T11:40:47.459Z,2.49
2018-12-25T11:41:53.622Z,2.53
2018-12-25T11:42:58.702Z,2.57
2018-12-25T11:44:07.212Z,2.61
2018-12-25T11:45:13.312Z,2.63
2018-12-25T11:46:19.077Z,2.65
2018-12-25T11:47:31.931Z,2.64
2018-12-25T11:48:40.834Z,2.65
2018-12-25T11:49:45.422Z,2.65
2018-12-25T11:50:50.535Z,2.62
2018-12-25T11:51:54.649Z,2.63
2018-12-25T11:52:58.829Z,2.62
2018-12-25T11:55:15.791Z,2.62
2018-12-25T11:56:20.523Z,2.62
2018-12-25T11:57:24.787Z,2.62
2018-12-25T11:58:30.959Z,2.59
2018-12-25T11:59:37.095Z,2.56
2018-12-25T12:00:42.359Z,2.54
2018-12-25T12:01:48.472Z,2.59
2018-12-25T12:02:54.411Z,2.55
2018-12-25T12:04:00.274Z,2.53
2018-12-25T12:05:06.799Z,2.52
2018-12-25T12:06:11.656Z,2.50
2018-12-25T12:07:16.524Z,2.50
2018-12-25T12:08:21.294Z,2.50
2018-12-25T12:09:27.188Z,2.52
2018-12-25T12:10:35.033Z,2.51
2018-12-25T12:11:42.536Z,2.49
2018-12-25T12:12:49.298Z,2.50
2018-12-25T12:13:53.791Z,2.49
2018-12-25T12:14:58.602Z,2.51
2018-12-25T12:16:04.138Z,2.49
2018-12-25T12:17:10.064Z,2.52
2018-12-25T12:18:17.483Z,2.51
2018-12-25T12:19:22.712Z,2.50
2018-12-25T12:20:28.052Z,2.49
2018-12-25T12:21:37.588Z,2.54
2018-12-25T12:22:42.547Z,2.62
2018-12-25T12:23:49.102Z,2.60
2018-12-25T12:24:56.582Z,2.61
2018-12-25T12:26:04.230Z,2.63
2018-12-25T12:27:13.078Z,2.62
2018-12-25T12:28:17.987Z,2.62
2018-12-25T12:29:23.322Z,2.59
2018-12-25T12:30:28.565Z,2.59
2018-12-25T12:31:33.117Z,2.56
2018-12-25T12:32:38.136Z,2.57
2018-12-25T12:33:44.838Z,2.56
2018-12-25T12:34:49.333Z,2.55
2018-12-25T12:35:54.506Z,2.54
2018-12-25T12:37:00.834Z,2.52
2018-12-25T12:38:07.421Z,2.51
2018-12-25T12:39:14.858Z,2.49
2018-12-25T12:40:20.063Z,2.49
2018-12-25T12:41:25.289Z,2.43
2018-12-25T12:42:30.196Z,2.40
2018-12-25T12:43:37.909Z,2.47
2018-12-25T12:44:43.339Z,2.43
2018-12-25T12:45:49.525Z,2.46
2018-12-25T12:46:55.571Z,2.47
2018-12-25T12:48:00.489Z,2.46
2018-12-25T12:49:04.863Z,2.45
2018-12-25T12:50:12.793Z,2.42
2018-12-25T12:51:17.310Z,2.43
2018-12-25T12:52:21.775Z,2.43
2018-12-25T12:53:27.905Z,2.42
2018-12-25T12:54:33.443Z,2.41
2018-12-25T12:55:38.524Z,2.39
2018-12-25T12:56:43.961Z,2.35
2018-12-25T12:57:49.991Z,2.35
2018-12-25T12:58:54.627Z,2.38
2018-12-25T13:00:00.041Z,2.39
2018-12-25T13:01:06.264Z,2.37
2018-12-25T13:02:11.418Z,2.39
2018-12-25T13:03:16.913Z,2.40
2018-12-25T13:04:21.613Z,2.36
2018-12-25T13:05:29.548Z,2.34
2018-12-25T13:06:35.699Z,2.38
2018-12-25T13:07:40.332Z,2.36
2018-12-25T13:08:44.991Z,2.36
2018-12-25T13:09:52.154Z,2.37
2018-12-25T13:11:02.277Z,2.35
2018-12-25T13:12:08.151Z,2.35
2018-12-25T13:13:12.913Z,2.35
2018-12-25T13:14:19.575Z,2.34
2018-12-25T13:15:26.821Z,2.34
2018-12-25T13:16:33.360Z,2.31
2018-12-25T13:17:38.723Z,2.31
2018-12-25T13:18:44.772Z,2.30
2018-12-25T13:19:51.155Z,2.30
2018-12-25T13:20:58.117Z,2.30
2018-12-25T13:22:06.484Z,2.31
2018-12-25T13:23:14.102Z,2.29
2018-12-25T13:24:19.139Z,2.27
2018-12-25T13:25:24.933Z,2.29
2018-12-25T13:26:31.849Z,2.27
2018-12-25T13:27:38.601Z,2.26
2018-12-25T13:28:44.627Z,2.25
2018-12-25T13:29:51.399Z,2.25
2018-12-25T13:30:56.771Z,2.23
2018-12-25T13:32:02.136Z,2.22
2018-12-25T13:33:07.774Z,2.18
2018-12-25T13:34:15.129Z,2.21
2018-12-25T13:35:20.712Z,2.19
2018-12-25T13:36:29.043Z,2.17
2018-12-25T13:37:33.738Z,2.18
2018-12-25T13:38:38.524Z,2.17
2018-12-25T13:39:43.569Z,2.15
2018-12-25T13:40:48.675Z,2.13
2018-12-25T13:41:53.363Z,2.12
2018-12-25T13:42:59.181Z,2.13
2018-12-25T13:44:05.627Z,2.12
2018-12-25T13:45:11.874Z,2.10
2018-12-25T13:46:19.482Z,2.09
2018-12-25T13:47:25.737Z,2.10
2018-12-25T13:48:31.888Z,2.10
2018-12-25T13:49:38.029Z,2.09
2018-12-25T13:50:44.388Z,2.09
2018-12-25T13:51:48.973Z,2.10
2018-12-25T13:53:02.737Z,2.09
2018-12-25T13:54:01.627Z,2.10
2018-12-25T13:55:06.356Z,2.08
2018-12-25T13:56:13.322Z,2.09
2018-12-25T13:57:18.864Z,2.07
2018-12-25T13:58:23.806Z,2.07
2018-12-25T13:59:30.368Z,2.06
2018-12-25T14:00:36.925Z,2.05
2018-12-25T14:01:42.107Z,2.05
2018-12-25T14:02:47.042Z,2.05
2018-12-25T14:03:52.477Z,2.01
2018-12-25T14:05:00.962Z,2.05
2018-12-25T14:06:07.025Z,2.05
2018-12-25T14:07:15.302Z,2.03
2018-12-25T14:08:22.182Z,2.04
2018-12-25T14:09:29.251Z,2.04
2018-12-25T14:10:33.984Z,2.05
2018-12-25T14:11:41.120Z,2.04
2018-12-25T14:12:48.685Z,2.04
2018-12-25T14:13:53.809Z,2.03
2018-12-25T14:14:59.759Z,2.02
2018-12-25T14:16:04.635Z,2.03
2018-12-25T14:17:09.847Z,2.04